ホーチミン の空港の天気 - METARとTAF

タンソンニャット国際空港 (ホーチミン) ( VVTS / SGN ) - ベトナム ホーチミン市
飛行場実況気象(Metar)
観測時間07/18 11:30 ICT (07/18 04:30 UTC)
風向・風速西 6m/s
視程10km以上
天気現象
全天の8割程度の雲 雲底高度 460m
少しの雲 雲底高度 520m
気温32℃
湿度71%
気圧1003hPa
METARVVTS 180430Z 26012KT 230V300 9999 BKN015 FEW017CB 32/26 Q1003 TEMPO FM0445 TL0505 23016G28KT 5000 SHRA RMK CB/SE/SW
過去の天気等 Google飛行場航空写真 Wunderground天気予報

過去48時間のMETAR

飛行場予報(TAF)
発表時間: 7/18 06:00 ICT (7/17 23:00 UTC)
予報対象時間: 18日7時 ICT ~ 19日13時 ICT
風向・風速西南西 6m/s
視程10km以上
全天の4割程度の雲 雲底高度 460m
全天の4割程度の雲 雲底高度 1220m
18日14時 ICT ~ 18日18時 ICT に一時的に
風向・風速西南西 8m/s 瞬間風速 15m/s
視程3000m
天気現象雷雨
全天の8割程度の雲 雲底高度 400m
少しの積乱雲 雲底高度 460m
TAF VVTS 172300Z 1800/1906 25011KT 9999 SCT015 SCT040
TEMPO 1807/1811 25015G29KT 3000 TSRA BKN013 FEW015CB